sensor_id;sensor_type;location;lat;lon;timestamp;P1;durP1;ratioP1;P2;durP2;ratioP2
39448;SDS011;25151;45.566;9.382;2024-03-08T00:03:36;3.30;;;2.30;;
39448;SDS011;25151;45.566;9.382;2024-03-08T00:33:25;3.92;;;2.28;;
39448;SDS011;25151;45.566;9.382;2024-03-08T00:35:53;4.47;;;2.17;;
39448;SDS011;25151;45.566;9.382;2024-03-08T00:38:24;5.10;;;2.10;;
39448;SDS011;25151;45.566;9.382;2024-03-08T00:40:51;3.85;;;2.30;;
39448;SDS011;25151;45.566;9.382;2024-03-08T00:43:18;3.10;;;1.85;;
39448;SDS011;25151;45.566;9.382;2024-03-08T00:45:47;3.65;;;2.15;;
39448;SDS011;25151;45.566;9.382;2024-03-08T00:48:15;3.08;;;1.88;;
39448;SDS011;25151;45.566;9.382;2024-03-08T00:50:47;3.00;;;2.20;;
39448;SDS011;25151;45.566;9.382;2024-03-08T00:53:13;3.22;;;2.15;;
39448;SDS011;25151;45.566;9.382;2024-03-08T00:55:39;4.75;;;1.70;;
39448;SDS011;25151;45.566;9.382;2024-03-08T00:58:07;2.05;;;1.65;;
39448;SDS011;25151;45.566;9.382;2024-03-08T01:00:34;3.83;;;2.10;;
39448;SDS011;25151;45.566;9.382;2024-03-08T01:03:00;3.00;;;2.13;;
39448;SDS011;25151;45.566;9.382;2024-03-08T01:05:28;3.63;;;2.25;;
39448;SDS011;25151;45.566;9.382;2024-03-08T01:07:54;3.80;;;2.25;;
39448;SDS011;25151;45.566;9.382;2024-03-08T01:10:20;3.78;;;2.20;;
39448;SDS011;25151;45.566;9.382;2024-03-08T01:12:46;2.92;;;2.05;;
39448;SDS011;25151;45.566;9.382;2024-03-08T01:15:12;3.67;;;1.70;;
39448;SDS011;25151;45.566;9.382;2024-03-08T01:17:38;3.05;;;1.92;;
39448;SDS011;25151;45.566;9.382;2024-03-08T01:20:04;3.40;;;2.05;;
39448;SDS011;25151;45.566;9.382;2024-03-08T01:22:31;3.85;;;2.10;;
39448;SDS011;25151;45.566;9.382;2024-03-08T01:24:57;4.30;;;2.15;;
39448;SDS011;25151;45.566;9.382;2024-03-08T01:27:23;3.00;;;2.13;;
39448;SDS011;25151;45.566;9.382;2024-03-08T01:29:52;4.97;;;2.03;;
39448;SDS011;25151;45.566;9.382;2024-03-08T01:32:17;4.53;;;2.17;;
39448;SDS011;25151;45.566;9.382;2024-03-08T01:34:44;3.70;;;2.40;;
39448;SDS011;25151;45.566;9.382;2024-03-08T01:37:10;5.13;;;2.22;;
39448;SDS011;25151;45.566;9.382;2024-03-08T01:39:36;3.45;;;2.25;;
39448;SDS011;25151;45.566;9.382;2024-03-08T01:42:03;4.78;;;2.20;;
39448;SDS011;25151;45.566;9.382;2024-03-08T01:44:29;2.95;;;2.20;;
39448;SDS011;25151;45.566;9.382;2024-03-08T01:46:56;5.80;;;1.80;;
39448;SDS011;25151;45.566;9.382;2024-03-08T01:49:23;3.38;;;2.25;;
39448;SDS011;25151;45.566;9.382;2024-03-08T01:51:51;3.05;;;2.08;;
39448;SDS011;25151;45.566;9.382;2024-03-08T01:54:17;2.33;;;2.00;;
39448;SDS011;25151;45.566;9.382;2024-03-08T01:56:45;3.42;;;2.05;;
39448;SDS011;25151;45.566;9.382;2024-03-08T01:59:12;2.40;;;1.83;;
39448;SDS011;25151;45.566;9.382;2024-03-08T02:01:39;3.38;;;2.15;;
39448;SDS011;25151;45.566;9.382;2024-03-08T02:04:06;2.60;;;2.15;;
39448;SDS011;25151;45.566;9.382;2024-03-08T02:06:32;2.35;;;1.90;;
39448;SDS011;25151;45.566;9.382;2024-03-08T02:08:58;3.42;;;2.17;;
39448;SDS011;25151;45.566;9.382;2024-03-08T02:11:25;4.15;;;2.33;;
39448;SDS011;25151;45.566;9.382;2024-03-08T02:13:51;2.67;;;2.10;;
39448;SDS011;25151;45.566;9.382;2024-03-08T02:16:21;3.17;;;2.15;;
39448;SDS011;25151;45.566;9.382;2024-03-08T02:18:47;3.40;;;2.22;;
39448;SDS011;25151;45.566;9.382;2024-03-08T02:21:14;3.75;;;2.67;;
39448;SDS011;25151;45.566;9.382;2024-03-08T02:23:45;3.72;;;2.30;;
39448;SDS011;25151;45.566;9.382;2024-03-08T02:26:11;2.88;;;2.22;;
39448;SDS011;25151;45.566;9.382;2024-03-08T02:28:37;3.33;;;2.00;;
39448;SDS011;25151;45.566;9.382;2024-03-08T02:31:04;4.18;;;2.13;;
39448;SDS011;25151;45.566;9.382;2024-03-08T02:33:33;2.72;;;2.17;;
39448;SDS011;25151;45.566;9.382;2024-03-08T02:35:59;3.75;;;2.67;;
39448;SDS011;25151;45.566;9.382;2024-03-08T02:38:25;3.10;;;2.13;;
39448;SDS011;25151;45.566;9.382;2024-03-08T02:40:51;3.55;;;2.35;;
39448;SDS011;25151;45.566;9.382;2024-03-08T02:43:19;2.60;;;2.13;;
39448;SDS011;25151;45.566;9.382;2024-03-08T02:45:47;3.63;;;2.47;;
39448;SDS011;25151;45.566;9.382;2024-03-08T02:48:14;3.85;;;2.00;;
39448;SDS011;25151;45.566;9.382;2024-03-08T02:50:41;6.05;;;2.30;;
39448;SDS011;25151;45.566;9.382;2024-03-08T02:53:10;2.85;;;2.25;;
39448;SDS011;25151;45.566;9.382;2024-03-08T02:55:37;3.95;;;2.35;;
39448;SDS011;25151;45.566;9.382;2024-03-08T02:58:04;3.35;;;2.45;;
39448;SDS011;25151;45.566;9.382;2024-03-08T03:00:31;3.20;;;2.45;;
39448;SDS011;25151;45.566;9.382;2024-03-08T03:02:57;3.10;;;2.28;;
39448;SDS011;25151;45.566;9.382;2024-03-08T03:05:23;2.50;;;1.85;;
39448;SDS011;25151;45.566;9.382;2024-03-08T03:07:50;3.15;;;2.10;;
39448;SDS011;25151;45.566;9.382;2024-03-08T03:10:16;4.00;;;2.30;;
39448;SDS011;25151;45.566;9.382;2024-03-08T03:12:43;3.65;;;2.10;;
39448;SDS011;25151;45.566;9.382;2024-03-08T03:15:13;2.08;;;1.63;;
39448;SDS011;25151;45.566;9.382;2024-03-08T03:17:39;2.88;;;2.17;;
39448;SDS011;25151;45.566;9.382;2024-03-08T03:20:06;4.05;;;2.40;;
39448;SDS011;25151;45.566;9.382;2024-03-08T03:22:38;3.28;;;2.40;;
39448;SDS011;25151;45.566;9.382;2024-03-08T03:25:04;3.58;;;2.72;;
39448;SDS011;25151;45.566;9.382;2024-03-08T03:27:31;2.95;;;2.08;;
39448;SDS011;25151;45.566;9.382;2024-03-08T03:29:58;3.65;;;2.35;;
39448;SDS011;25151;45.566;9.382;2024-03-08T03:32:44;4.00;;;2.47;;
39448;SDS011;25151;45.566;9.382;2024-03-08T03:35:12;5.32;;;2.55;;
39448;SDS011;25151;45.566;9.382;2024-03-08T03:37:40;2.95;;;2.35;;
39448;SDS011;25151;45.566;9.382;2024-03-08T03:40:08;2.80;;;2.20;;
39448;SDS011;25151;45.566;9.382;2024-03-08T03:42:34;3.67;;;2.30;;
39448;SDS011;25151;45.566;9.382;2024-03-08T03:45:00;3.53;;;2.30;;
39448;SDS011;25151;45.566;9.382;2024-03-08T03:47:28;3.15;;;2.40;;
39448;SDS011;25151;45.566;9.382;2024-03-08T03:49:54;4.10;;;2.85;;
39448;SDS011;25151;45.566;9.382;2024-03-08T03:52:20;3.67;;;2.47;;
39448;SDS011;25151;45.566;9.382;2024-03-08T03:54:46;3.25;;;2.92;;
39448;SDS011;25151;45.566;9.382;2024-03-08T03:57:13;4.18;;;2.15;;
39448;SDS011;25151;45.566;9.382;2024-03-08T03:59:43;2.80;;;2.30;;
39448;SDS011;25151;45.566;9.382;2024-03-08T04:02:09;3.00;;;2.13;;
39448;SDS011;25151;45.566;9.382;2024-03-08T04:04:35;3.42;;;2.58;;
39448;SDS011;25151;45.566;9.382;2024-03-08T04:07:01;3.22;;;2.20;;
39448;SDS011;25151;45.566;9.382;2024-03-08T04:09:27;3.20;;;2.33;;
39448;SDS011;25151;45.566;9.382;2024-03-08T04:11:53;3.90;;;2.33;;
39448;SDS011;25151;45.566;9.382;2024-03-08T04:14:20;3.78;;;2.63;;
39448;SDS011;25151;45.566;9.382;2024-03-08T04:16:48;3.85;;;2.60;;
39448;SDS011;25151;45.566;9.382;2024-03-08T04:19:13;3.28;;;2.30;;
39448;SDS011;25151;45.566;9.382;2024-03-08T04:21:40;2.97;;;2.20;;
39448;SDS011;25151;45.566;9.382;2024-03-08T04:24:07;3.38;;;2.15;;
39448;SDS011;25151;45.566;9.382;2024-03-08T04:26:35;2.83;;;2.33;;
39448;SDS011;25151;45.566;9.382;2024-03-08T04:29:01;3.53;;;2.58;;
39448;SDS011;25151;45.566;9.382;2024-03-08T04:31:28;4.07;;;2.70;;
39448;SDS011;25151;45.566;9.382;2024-03-08T04:33:56;4.47;;;2.60;;
39448;SDS011;25151;45.566;9.382;2024-03-08T04:36:22;4.82;;;2.47;;
39448;SDS011;25151;45.566;9.382;2024-03-08T04:38:50;3.38;;;2.38;;
39448;SDS011;25151;45.566;9.382;2024-03-08T04:41:16;3.72;;;2.70;;
39448;SDS011;25151;45.566;9.382;2024-03-08T04:43:43;3.53;;;2.58;;
39448;SDS011;25151;45.566;9.382;2024-03-08T04:46:09;2.90;;;2.30;;
39448;SDS011;25151;45.566;9.382;2024-03-08T04:48:35;2.75;;;2.42;;
39448;SDS011;25151;45.566;9.382;2024-03-08T04:51:02;3.30;;;2.50;;
39448;SDS011;25151;45.566;9.382;2024-03-08T04:53:29;3.28;;;2.13;;
39448;SDS011;25151;45.566;9.382;2024-03-08T04:55:57;2.70;;;2.42;;
39448;SDS011;25151;45.566;9.382;2024-03-08T04:58:23;3.42;;;2.70;;
39448;SDS011;25151;45.566;9.382;2024-03-08T05:00:49;3.60;;;2.20;;
39448;SDS011;25151;45.566;9.382;2024-03-08T05:03:15;3.20;;;2.50;;
39448;SDS011;25151;45.566;9.382;2024-03-08T05:05:42;3.90;;;2.40;;
39448;SDS011;25151;45.566;9.382;2024-03-08T05:08:08;2.58;;;2.22;;
39448;SDS011;25151;45.566;9.382;2024-03-08T05:10:34;3.13;;;2.13;;
39448;SDS011;25151;45.566;9.382;2024-03-08T05:13:00;2.20;;;2.00;;
39448;SDS011;25151;45.566;9.382;2024-03-08T05:15:26;4.35;;;2.72;;
39448;SDS011;25151;45.566;9.382;2024-03-08T05:17:52;3.17;;;2.38;;
39448;SDS011;25151;45.566;9.382;2024-03-08T05:20:18;3.22;;;2.53;;
39448;SDS011;25151;45.566;9.382;2024-03-08T05:22:44;3.03;;;2.35;;
39448;SDS011;25151;45.566;9.382;2024-03-08T05:25:11;3.95;;;2.45;;
39448;SDS011;25151;45.566;9.382;2024-03-08T05:27:39;2.78;;;2.20;;
39448;SDS011;25151;45.566;9.382;2024-03-08T05:30:06;3.13;;;2.38;;
39448;SDS011;25151;45.566;9.382;2024-03-08T05:32:32;3.42;;;2.17;;
39448;SDS011;25151;45.566;9.382;2024-03-08T05:34:59;2.63;;;2.30;;
39448;SDS011;25151;45.566;9.382;2024-03-08T05:37:25;3.65;;;2.70;;
39448;SDS011;25151;45.566;9.382;2024-03-08T05:39:51;3.17;;;2.33;;
39448;SDS011;25151;45.566;9.382;2024-03-08T05:42:18;3.97;;;2.28;;
39448;SDS011;25151;45.566;9.382;2024-03-08T05:44:45;3.05;;;2.70;;
39448;SDS011;25151;45.566;9.382;2024-03-08T05:47:11;3.05;;;2.35;;
39448;SDS011;25151;45.566;9.382;2024-03-08T05:49:45;3.05;;;1.83;;
39448;SDS011;25151;45.566;9.382;2024-03-08T05:52:14;3.47;;;2.22;;
39448;SDS011;25151;45.566;9.382;2024-03-08T05:54:40;3.33;;;2.28;;
39448;SDS011;25151;45.566;9.382;2024-03-08T05:57:06;3.00;;;1.92;;
39448;SDS011;25151;45.566;9.382;2024-03-08T05:59:32;3.15;;;2.20;;
39448;SDS011;25151;45.566;9.382;2024-03-08T06:01:59;3.55;;;2.55;;
39448;SDS011;25151;45.566;9.382;2024-03-08T06:04:25;3.45;;;2.60;;
39448;SDS011;25151;45.566;9.382;2024-03-08T06:06:52;3.65;;;2.45;;
39448;SDS011;25151;45.566;9.382;2024-03-08T06:09:20;2.42;;;2.17;;
39448;SDS011;25151;45.566;9.382;2024-03-08T06:11:48;2.45;;;2.22;;
39448;SDS011;25151;45.566;9.382;2024-03-08T06:14:14;3.05;;;2.35;;
39448;SDS011;25151;45.566;9.382;2024-03-08T06:16:44;3.08;;;2.42;;
39448;SDS011;25151;45.566;9.382;2024-03-08T06:19:10;3.13;;;2.38;;
39448;SDS011;25151;45.566;9.382;2024-03-08T06:21:37;2.90;;;2.40;;
39448;SDS011;25151;45.566;9.382;2024-03-08T06:24:03;3.55;;;2.53;;
39448;SDS011;25151;45.566;9.382;2024-03-08T06:26:29;3.17;;;2.50;;
39448;SDS011;25151;45.566;9.382;2024-03-08T06:28:55;4.30;;;2.38;;
39448;SDS011;25151;45.566;9.382;2024-03-08T06:31:22;4.45;;;2.85;;
39448;SDS011;25151;45.566;9.382;2024-03-08T06:33:48;2.90;;;2.58;;
39448;SDS011;25151;45.566;9.382;2024-03-08T06:36:20;3.22;;;2.63;;
39448;SDS011;25151;45.566;9.382;2024-03-08T06:38:49;3.00;;;2.30;;
39448;SDS011;25151;45.566;9.382;2024-03-08T06:41:16;3.33;;;2.10;;
39448;SDS011;25151;45.566;9.382;2024-03-08T06:43:43;3.35;;;2.33;;
39448;SDS011;25151;45.566;9.382;2024-03-08T06:46:10;4.00;;;2.45;;
39448;SDS011;25151;45.566;9.382;2024-03-08T06:48:39;2.67;;;2.05;;
39448;SDS011;25151;45.566;9.382;2024-03-08T06:51:05;2.58;;;2.17;;
39448;SDS011;25151;45.566;9.382;2024-03-08T06:53:31;2.95;;;2.30;;
39448;SDS011;25151;45.566;9.382;2024-03-08T06:55:58;4.68;;;2.13;;
39448;SDS011;25151;45.566;9.382;2024-03-08T06:58:24;5.80;;;2.60;;
39448;SDS011;25151;45.566;9.382;2024-03-08T07:00:50;3.00;;;2.42;;
39448;SDS011;25151;45.566;9.382;2024-03-08T07:03:23;2.50;;;2.20;;
39448;SDS011;25151;45.566;9.382;2024-03-08T07:05:49;3.60;;;2.40;;
39448;SDS011;25151;45.566;9.382;2024-03-08T07:08:16;4.25;;;2.50;;
39448;SDS011;25151;45.566;9.382;2024-03-08T07:13:52;3.35;;;2.38;;
39448;SDS011;25151;45.566;9.382;2024-03-08T07:16:19;5.63;;;2.15;;
39448;SDS011;25151;45.566;9.382;2024-03-08T07:18:46;5.05;;;2.25;;
39448;SDS011;25151;45.566;9.382;2024-03-08T07:21:12;6.22;;;2.22;;
39448;SDS011;25151;45.566;9.382;2024-03-08T07:23:40;4.15;;;2.78;;
39448;SDS011;25151;45.566;9.382;2024-03-08T07:26:19;5.80;;;2.63;;
39448;SDS011;25151;45.566;9.382;2024-03-08T07:28:50;14.00;;;2.45;;
39448;SDS011;25151;45.566;9.382;2024-03-08T07:31:20;4.68;;;2.53;;
39448;SDS011;25151;45.566;9.382;2024-03-08T07:34:07;3.38;;;2.28;;
39448;SDS011;25151;45.566;9.382;2024-03-08T07:37:07;3.25;;;1.98;;
39448;SDS011;25151;45.566;9.382;2024-03-08T07:39:36;4.18;;;2.10;;
39448;SDS011;25151;45.566;9.382;2024-03-08T07:42:07;5.63;;;2.60;;
39448;SDS011;25151;45.566;9.382;2024-03-08T07:44:36;3.72;;;2.05;;
39448;SDS011;25151;45.566;9.382;2024-03-08T07:47:08;5.75;;;2.08;;
39448;SDS011;25151;45.566;9.382;2024-03-08T07:49:35;3.78;;;2.50;;
39448;SDS011;25151;45.566;9.382;2024-03-08T07:52:04;4.15;;;2.53;;
39448;SDS011;25151;45.566;9.382;2024-03-08T07:54:32;5.18;;;2.47;;
39448;SDS011;25151;45.566;9.382;2024-03-08T07:57:00;4.28;;;2.03;;
39448;SDS011;25151;45.566;9.382;2024-03-08T07:59:28;4.53;;;2.25;;
39448;SDS011;25151;45.566;9.382;2024-03-08T08:01:55;2.80;;;2.00;;
39448;SDS011;25151;45.566;9.382;2024-03-08T08:04:27;3.00;;;2.40;;
39448;SDS011;25151;45.566;9.382;2024-03-08T08:06:53;5.70;;;2.53;;
39448;SDS011;25151;45.566;9.382;2024-03-08T08:09:20;3.50;;;2.42;;
39448;SDS011;25151;45.566;9.382;2024-03-08T08:11:56;2.53;;;2.10;;
39448;SDS011;25151;45.566;9.382;2024-03-08T08:14:21;4.75;;;2.53;;
39448;SDS011;25151;45.566;9.382;2024-03-08T08:16:47;3.75;;;2.13;;
39448;SDS011;25151;45.566;9.382;2024-03-08T08:19:18;4.93;;;2.92;;
39448;SDS011;25151;45.566;9.382;2024-03-08T08:21:44;3.75;;;2.28;;
39448;SDS011;25151;45.566;9.382;2024-03-08T08:24:12;5.03;;;2.40;;
39448;SDS011;25151;45.566;9.382;2024-03-08T08:26:39;3.85;;;2.20;;
39448;SDS011;25151;45.566;9.382;2024-03-08T08:29:05;4.80;;;2.30;;
39448;SDS011;25151;45.566;9.382;2024-03-08T08:31:33;4.55;;;2.75;;
39448;SDS011;25151;45.566;9.382;2024-03-08T08:34:01;3.15;;;2.38;;
39448;SDS011;25151;45.566;9.382;2024-03-08T08:36:29;6.95;;;2.65;;
39448;SDS011;25151;45.566;9.382;2024-03-08T08:38:57;5.50;;;2.25;;
39448;SDS011;25151;45.566;9.382;2024-03-08T08:41:24;4.07;;;2.75;;
39448;SDS011;25151;45.566;9.382;2024-03-08T08:43:50;4.30;;;2.05;;
39448;SDS011;25151;45.566;9.382;2024-03-08T08:46:18;4.00;;;2.55;;
39448;SDS011;25151;45.566;9.382;2024-03-08T08:48:47;3.70;;;2.40;;
39448;SDS011;25151;45.566;9.382;2024-03-08T08:51:13;3.63;;;2.33;;
39448;SDS011;25151;45.566;9.382;2024-03-08T08:53:41;4.22;;;2.60;;
39448;SDS011;25151;45.566;9.382;2024-03-08T08:56:11;3.53;;;2.30;;
39448;SDS011;25151;45.566;9.382;2024-03-08T09:01:08;3.33;;;1.95;;
39448;SDS011;25151;45.566;9.382;2024-03-08T09:03:37;3.92;;;2.70;;
39448;SDS011;25151;45.566;9.382;2024-03-08T09:06:07;4.22;;;2.47;;
39448;SDS011;25151;45.566;9.382;2024-03-08T09:08:36;3.63;;;2.17;;
39448;SDS011;25151;45.566;9.382;2024-03-08T09:11:04;3.20;;;1.98;;
39448;SDS011;25151;45.566;9.382;2024-03-08T09:13:31;3.97;;;2.53;;
39448;SDS011;25151;45.566;9.382;2024-03-08T09:16:00;6.43;;;2.70;;
39448;SDS011;25151;45.566;9.382;2024-03-08T09:18:28;4.75;;;2.72;;
39448;SDS011;25151;45.566;9.382;2024-03-08T09:20:57;3.00;;;2.10;;
39448;SDS011;25151;45.566;9.382;2024-03-08T09:23:25;8.88;;;2.65;;
39448;SDS011;25151;45.566;9.382;2024-03-08T09:25:59;3.05;;;2.30;;
39448;SDS011;25151;45.566;9.382;2024-03-08T09:34:02;4.13;;;2.60;;
39448;SDS011;25151;45.566;9.382;2024-03-08T09:36:29;2.78;;;2.08;;
39448;SDS011;25151;45.566;9.382;2024-03-08T09:38:58;3.13;;;1.75;;
39448;SDS011;25151;45.566;9.382;2024-03-08T09:41:25;4.25;;;2.20;;
39448;SDS011;25151;45.566;9.382;2024-03-08T09:43:53;2.55;;;1.83;;
39448;SDS011;25151;45.566;9.382;2024-03-08T09:46:23;3.67;;;2.35;;
39448;SDS011;25151;45.566;9.382;2024-03-08T09:48:52;2.65;;;2.15;;
39448;SDS011;25151;45.566;9.382;2024-03-08T09:51:21;3.10;;;2.40;;
39448;SDS011;25151;45.566;9.382;2024-03-08T09:53:54;4.47;;;1.95;;
39448;SDS011;25151;45.566;9.382;2024-03-08T09:56:21;3.95;;;2.25;;
39448;SDS011;25151;45.566;9.382;2024-03-08T09:58:50;2.90;;;2.23;;
39448;SDS011;25151;45.566;9.382;2024-03-08T10:01:36;3.85;;;2.08;;
39448;SDS011;25151;45.566;9.382;2024-03-08T10:04:04;2.72;;;1.80;;
39448;SDS011;25151;45.566;9.382;2024-03-08T10:06:30;3.33;;;2.25;;
39448;SDS011;25151;45.566;9.382;2024-03-08T10:09:01;2.78;;;2.00;;
39448;SDS011;25151;45.566;9.382;2024-03-08T10:11:37;2.58;;;1.80;;
39448;SDS011;25151;45.566;9.382;2024-03-08T10:17:05;3.35;;;2.13;;
39448;SDS011;25151;45.566;9.382;2024-03-08T10:19:32;3.67;;;2.03;;
39448;SDS011;25151;45.566;9.382;2024-03-08T10:21:59;3.88;;;2.28;;
39448;SDS011;25151;45.566;9.382;2024-03-08T10:24:31;4.53;;;2.35;;
39448;SDS011;25151;45.566;9.382;2024-03-08T10:27:00;2.90;;;2.13;;
39448;SDS011;25151;45.566;9.382;2024-03-08T10:29:48;2.60;;;1.80;;
39448;SDS011;25151;45.566;9.382;2024-03-08T10:32:17;3.58;;;2.20;;
39448;SDS011;25151;45.566;9.382;2024-03-08T10:37:21;2.38;;;1.90;;
39448;SDS011;25151;45.566;9.382;2024-03-08T10:39:59;3.63;;;2.00;;
39448;SDS011;25151;45.566;9.382;2024-03-08T10:42:43;3.13;;;2.13;;
39448;SDS011;25151;45.566;9.382;2024-03-08T10:51:11;2.78;;;1.80;;
39448;SDS011;25151;45.566;9.382;2024-03-08T10:53:38;2.47;;;1.98;;
39448;SDS011;25151;45.566;9.382;2024-03-08T10:56:07;3.05;;;1.90;;
39448;SDS011;25151;45.566;9.382;2024-03-08T10:58:39;2.97;;;1.88;;
39448;SDS011;25151;45.566;9.382;2024-03-08T11:01:06;4.03;;;1.90;;
39448;SDS011;25151;45.566;9.382;2024-03-08T11:06:13;2.72;;;2.00;;
39448;SDS011;25151;45.566;9.382;2024-03-08T11:08:40;2.22;;;2.03;;
39448;SDS011;25151;45.566;9.382;2024-03-08T11:11:26;2.67;;;2.08;;
39448;SDS011;25151;45.566;9.382;2024-03-08T11:13:57;4.63;;;2.00;;
39448;SDS011;25151;45.566;9.382;2024-03-08T11:18:53;3.00;;;2.13;;
39448;SDS011;25151;45.566;9.382;2024-03-08T11:21:20;6.72;;;2.03;;
39448;SDS011;25151;45.566;9.382;2024-03-08T11:23:59;2.70;;;2.10;;
39448;SDS011;25151;45.566;9.382;2024-03-08T11:26:28;2.38;;;1.73;;
39448;SDS011;25151;45.566;9.382;2024-03-08T11:32:06;6.53;;;2.17;;
39448;SDS011;25151;45.566;9.382;2024-03-08T11:35:21;5.32;;;1.88;;
39448;SDS011;25151;45.566;9.382;2024-03-08T11:37:51;2.83;;;2.35;;
39448;SDS011;25151;45.566;9.382;2024-03-08T11:40:21;4.40;;;2.10;;
39448;SDS011;25151;45.566;9.382;2024-03-08T11:43:00;3.13;;;2.35;;
39448;SDS011;25151;45.566;9.382;2024-03-08T11:45:35;3.47;;;1.83;;
39448;SDS011;25151;45.566;9.382;2024-03-08T11:48:11;3.17;;;2.23;;
39448;SDS011;25151;45.566;9.382;2024-03-08T11:50:38;6.13;;;2.38;;
39448;SDS011;25151;45.566;9.382;2024-03-08T11:53:15;4.40;;;2.50;;
39448;SDS011;25151;45.566;9.382;2024-03-08T11:55:46;4.65;;;3.03;;
39448;SDS011;25151;45.566;9.382;2024-03-08T11:58:14;6.40;;;3.13;;
39448;SDS011;25151;45.566;9.382;2024-03-08T12:00:41;5.95;;;2.90;;
39448;SDS011;25151;45.566;9.382;2024-03-08T12:03:07;7.10;;;3.38;;
39448;SDS011;25151;45.566;9.382;2024-03-08T12:05:37;4.63;;;2.97;;
39448;SDS011;25151;45.566;9.382;2024-03-08T12:08:03;5.45;;;3.40;;
39448;SDS011;25151;45.566;9.382;2024-03-08T12:10:32;8.30;;;3.90;;
39448;SDS011;25151;45.566;9.382;2024-03-08T12:13:00;5.13;;;3.53;;
39448;SDS011;25151;45.566;9.382;2024-03-08T12:15:28;10.27;;;3.95;;
39448;SDS011;25151;45.566;9.382;2024-03-08T12:17:58;8.85;;;3.63;;
39448;SDS011;25151;45.566;9.382;2024-03-08T12:20:26;7.88;;;3.40;;
39448;SDS011;25151;45.566;9.382;2024-03-08T12:22:55;7.13;;;3.78;;
39448;SDS011;25151;45.566;9.382;2024-03-08T12:25:25;8.18;;;4.10;;
39448;SDS011;25151;45.566;9.382;2024-03-08T12:28:12;7.63;;;3.90;;
39448;SDS011;25151;45.566;9.382;2024-03-08T12:30:50;5.82;;;3.20;;
39448;SDS011;25151;45.566;9.382;2024-03-08T12:33:23;6.38;;;4.22;;
39448;SDS011;25151;45.566;9.382;2024-03-08T12:35:51;8.75;;;3.95;;
39448;SDS011;25151;45.566;9.382;2024-03-08T12:38:20;9.75;;;4.32;;
39448;SDS011;25151;45.566;9.382;2024-03-08T12:40:59;8.60;;;3.67;;
39448;SDS011;25151;45.566;9.382;2024-03-08T12:43:27;8.73;;;3.63;;
39448;SDS011;25151;45.566;9.382;2024-03-08T12:45:57;11.40;;;3.77;;
39448;SDS011;25151;45.566;9.382;2024-03-08T12:48:25;10.60;;;4.13;;
39448;SDS011;25151;45.566;9.382;2024-03-08T12:50:51;10.70;;;3.15;;
39448;SDS011;25151;45.566;9.382;2024-03-08T12:53:18;9.80;;;3.70;;
39448;SDS011;25151;45.566;9.382;2024-03-08T12:55:46;9.35;;;4.07;;
39448;SDS011;25151;45.566;9.382;2024-03-08T13:00:45;4.80;;;3.03;;
39448;SDS011;25151;45.566;9.382;2024-03-08T13:03:12;6.40;;;3.33;;
39448;SDS011;25151;45.566;9.382;2024-03-08T13:05:40;8.18;;;3.25;;
39448;SDS011;25151;45.566;9.382;2024-03-08T13:08:08;6.80;;;3.47;;
39448;SDS011;25151;45.566;9.382;2024-03-08T13:10:38;6.72;;;3.40;;
39448;SDS011;25151;45.566;9.382;2024-03-08T13:15:40;8.25;;;3.80;;
39448;SDS011;25151;45.566;9.382;2024-03-08T13:18:11;6.75;;;3.15;;
39448;SDS011;25151;45.566;9.382;2024-03-08T13:20:38;5.45;;;3.03;;
39448;SDS011;25151;45.566;9.382;2024-03-08T13:25:36;7.95;;;3.47;;
39448;SDS011;25151;45.566;9.382;2024-03-08T13:28:03;6.07;;;3.25;;
39448;SDS011;25151;45.566;9.382;2024-03-08T13:30:31;8.40;;;3.35;;
39448;SDS011;25151;45.566;9.382;2024-03-08T13:32:58;8.48;;;3.00;;
39448;SDS011;25151;45.566;9.382;2024-03-08T13:35:24;7.15;;;3.70;;
39448;SDS011;25151;45.566;9.382;2024-03-08T13:37:53;6.45;;;3.50;;
39448;SDS011;25151;45.566;9.382;2024-03-08T13:40:20;6.40;;;3.53;;
39448;SDS011;25151;45.566;9.382;2024-03-08T13:42:47;8.10;;;3.58;;
39448;SDS011;25151;45.566;9.382;2024-03-08T13:45:15;8.82;;;2.72;;
39448;SDS011;25151;45.566;9.382;2024-03-08T13:47:49;7.03;;;3.30;;
39448;SDS011;25151;45.566;9.382;2024-03-08T13:52:49;8.48;;;3.28;;
39448;SDS011;25151;45.566;9.382;2024-03-08T13:55:17;6.45;;;3.13;;
39448;SDS011;25151;45.566;9.382;2024-03-08T13:57:44;6.95;;;3.10;;
39448;SDS011;25151;45.566;9.382;2024-03-08T14:00:11;8.20;;;2.80;;
39448;SDS011;25151;45.566;9.382;2024-03-08T14:02:39;5.47;;;3.38;;
39448;SDS011;25151;45.566;9.382;2024-03-08T14:05:06;5.78;;;3.80;;
39448;SDS011;25151;45.566;9.382;2024-03-08T14:07:34;5.90;;;3.40;;
39448;SDS011;25151;45.566;9.382;2024-03-08T14:10:01;10.30;;;3.53;;
39448;SDS011;25151;45.566;9.382;2024-03-08T14:12:28;8.25;;;3.40;;
39448;SDS011;25151;45.566;9.382;2024-03-08T14:14:55;5.60;;;3.50;;
39448;SDS011;25151;45.566;9.382;2024-03-08T14:17:25;7.03;;;3.50;;
39448;SDS011;25151;45.566;9.382;2024-03-08T14:19:53;8.27;;;3.38;;
39448;SDS011;25151;45.566;9.382;2024-03-08T14:22:20;5.25;;;2.90;;
39448;SDS011;25151;45.566;9.382;2024-03-08T14:24:48;5.18;;;3.15;;
39448;SDS011;25151;45.566;9.382;2024-03-08T14:27:17;6.18;;;3.20;;
39448;SDS011;25151;45.566;9.382;2024-03-08T14:29:44;6.65;;;3.05;;
39448;SDS011;25151;45.566;9.382;2024-03-08T14:32:11;6.30;;;2.88;;
39448;SDS011;25151;45.566;9.382;2024-03-08T14:34:38;6.45;;;3.00;;
39448;SDS011;25151;45.566;9.382;2024-03-08T14:37:05;7.10;;;3.80;;
39448;SDS011;25151;45.566;9.382;2024-03-08T14:39:37;5.68;;;2.70;;
39448;SDS011;25151;45.566;9.382;2024-03-08T14:42:04;5.47;;;3.00;;
39448;SDS011;25151;45.566;9.382;2024-03-08T14:44:33;7.00;;;3.53;;
39448;SDS011;25151;45.566;9.382;2024-03-08T14:47:00;4.53;;;2.95;;
39448;SDS011;25151;45.566;9.382;2024-03-08T14:49:30;5.00;;;2.70;;
39448;SDS011;25151;45.566;9.382;2024-03-08T14:52:01;5.40;;;3.25;;
39448;SDS011;25151;45.566;9.382;2024-03-08T14:54:29;4.60;;;2.45;;
39448;SDS011;25151;45.566;9.382;2024-03-08T14:59:30;5.38;;;2.97;;
39448;SDS011;25151;45.566;9.382;2024-03-08T15:01:58;3.70;;;2.65;;
39448;SDS011;25151;45.566;9.382;2024-03-08T15:04:26;5.55;;;3.60;;
39448;SDS011;25151;45.566;9.382;2024-03-08T15:06:52;5.18;;;3.00;;
39448;SDS011;25151;45.566;9.382;2024-03-08T15:09:58;4.72;;;3.10;;
39448;SDS011;25151;45.566;9.382;2024-03-08T15:12:25;5.50;;;2.45;;
39448;SDS011;25151;45.566;9.382;2024-03-08T15:14:52;6.35;;;3.33;;
39448;SDS011;25151;45.566;9.382;2024-03-08T15:17:18;5.60;;;2.83;;
39448;SDS011;25151;45.566;9.382;2024-03-08T15:19:49;4.45;;;2.60;;
39448;SDS011;25151;45.566;9.382;2024-03-08T15:22:17;4.95;;;2.75;;
39448;SDS011;25151;45.566;9.382;2024-03-08T15:24:44;4.93;;;3.15;;
39448;SDS011;25151;45.566;9.382;2024-03-08T15:27:10;5.75;;;2.90;;
39448;SDS011;25151;45.566;9.382;2024-03-08T15:29:38;5.88;;;3.17;;
39448;SDS011;25151;45.566;9.382;2024-03-08T15:32:04;4.60;;;3.00;;
39448;SDS011;25151;45.566;9.382;2024-03-08T15:34:32;10.02;;;3.38;;
39448;SDS011;25151;45.566;9.382;2024-03-08T15:37:02;4.55;;;2.38;;
39448;SDS011;25151;45.566;9.382;2024-03-08T15:39:30;5.88;;;3.25;;
39448;SDS011;25151;45.566;9.382;2024-03-08T15:41:58;6.28;;;3.03;;
39448;SDS011;25151;45.566;9.382;2024-03-08T15:44:25;4.30;;;2.85;;
39448;SDS011;25151;45.566;9.382;2024-03-08T15:46:53;5.35;;;2.80;;
39448;SDS011;25151;45.566;9.382;2024-03-08T15:49:26;6.97;;;2.75;;
39448;SDS011;25151;45.566;9.382;2024-03-08T15:51:53;4.78;;;3.05;;
39448;SDS011;25151;45.566;9.382;2024-03-08T15:54:21;6.25;;;3.03;;
39448;SDS011;25151;45.566;9.382;2024-03-08T15:56:49;6.53;;;2.47;;
39448;SDS011;25151;45.566;9.382;2024-03-08T15:59:15;6.88;;;2.78;;
39448;SDS011;25151;45.566;9.382;2024-03-08T16:01:42;5.53;;;2.55;;
39448;SDS011;25151;45.566;9.382;2024-03-08T16:04:16;6.40;;;3.03;;
39448;SDS011;25151;45.566;9.382;2024-03-08T16:06:45;6.25;;;2.90;;
39448;SDS011;25151;45.566;9.382;2024-03-08T16:09:12;4.22;;;2.53;;